sensor_id;sensor_type;location;lat;lon;timestamp;temperature;humidity
13494;DHT22;6819;50.886;4.332;2023-12-28T00:00:26;10.40;99.90
13494;DHT22;6819;50.886;4.332;2023-12-28T00:02:52;10.40;99.90
13494;DHT22;6819;50.886;4.332;2023-12-28T00:05:18;10.40;99.90
13494;DHT22;6819;50.886;4.332;2023-12-28T00:07:44;10.40;99.90
13494;DHT22;6819;50.886;4.332;2023-12-28T00:10:10;10.40;99.90
13494;DHT22;6819;50.886;4.332;2023-12-28T00:12:35;10.40;99.90
13494;DHT22;6819;50.886;4.332;2023-12-28T00:15:01;10.50;99.90
13494;DHT22;6819;50.886;4.332;2023-12-28T00:17:27;10.50;99.90
13494;DHT22;6819;50.886;4.332;2023-12-28T00:19:52;10.50;99.90
13494;DHT22;6819;50.886;4.332;2023-12-28T00:22:18;10.50;99.90
13494;DHT22;6819;50.886;4.332;2023-12-28T00:24:44;10.50;99.90
13494;DHT22;6819;50.886;4.332;2023-12-28T00:27:09;10.50;99.90
13494;DHT22;6819;50.886;4.332;2023-12-28T00:29:35;10.50;99.90
13494;DHT22;6819;50.886;4.332;2023-12-28T00:32:05;10.60;99.90
13494;DHT22;6819;50.886;4.332;2023-12-28T00:34:31;10.60;99.90
13494;DHT22;6819;50.886;4.332;2023-12-28T00:36:56;10.60;99.90
13494;DHT22;6819;50.886;4.332;2023-12-28T00:39:22;10.60;99.90
13494;DHT22;6819;50.886;4.332;2023-12-28T00:41:48;10.70;99.90
13494;DHT22;6819;50.886;4.332;2023-12-28T00:44:13;10.60;99.90
13494;DHT22;6819;50.886;4.332;2023-12-28T00:46:39;10.70;99.90
13494;DHT22;6819;50.886;4.332;2023-12-28T00:49:05;10.60;99.90
13494;DHT22;6819;50.886;4.332;2023-12-28T00:51:30;10.70;99.90
13494;DHT22;6819;50.886;4.332;2023-12-28T00:53:56;10.70;99.90
13494;DHT22;6819;50.886;4.332;2023-12-28T00:56:22;10.70;99.90
13494;DHT22;6819;50.886;4.332;2023-12-28T00:58:48;10.70;99.90
13494;DHT22;6819;50.886;4.332;2023-12-28T01:01:15;10.70;99.90
13494;DHT22;6819;50.886;4.332;2023-12-28T01:03:40;10.70;99.90
13494;DHT22;6819;50.886;4.332;2023-12-28T01:06:06;10.70;99.90
13494;DHT22;6819;50.886;4.332;2023-12-28T01:08:32;10.70;99.90
13494;DHT22;6819;50.886;4.332;2023-12-28T01:10:59;10.70;99.90
13494;DHT22;6819;50.886;4.332;2023-12-28T01:13:26;10.70;99.90
13494;DHT22;6819;50.886;4.332;2023-12-28T01:15:52;10.70;99.90
13494;DHT22;6819;50.886;4.332;2023-12-28T01:18:18;10.70;99.90
13494;DHT22;6819;50.886;4.332;2023-12-28T01:20:44;10.70;99.90
13494;DHT22;6819;50.886;4.332;2023-12-28T01:23:10;10.70;99.90
13494;DHT22;6819;50.886;4.332;2023-12-28T01:25:35;10.70;99.90
13494;DHT22;6819;50.886;4.332;2023-12-28T01:28:01;10.70;99.90
13494;DHT22;6819;50.886;4.332;2023-12-28T01:30:27;10.70;99.90
13494;DHT22;6819;50.886;4.332;2023-12-28T01:32:53;10.70;99.90
13494;DHT22;6819;50.886;4.332;2023-12-28T01:35:18;10.70;99.90
13494;DHT22;6819;50.886;4.332;2023-12-28T01:37:44;10.70;99.90
13494;DHT22;6819;50.886;4.332;2023-12-28T01:40:11;10.70;99.90
13494;DHT22;6819;50.886;4.332;2023-12-28T01:42:37;10.70;99.90
13494;DHT22;6819;50.886;4.332;2023-12-28T01:45:03;10.70;99.90
13494;DHT22;6819;50.886;4.332;2023-12-28T01:47:30;10.70;99.90
13494;DHT22;6819;50.886;4.332;2023-12-28T01:49:56;10.70;99.90
13494;DHT22;6819;50.886;4.332;2023-12-28T01:52:22;10.70;99.90
13494;DHT22;6819;50.886;4.332;2023-12-28T01:54:47;10.60;99.90
13494;DHT22;6819;50.886;4.332;2023-12-28T01:57:14;10.70;99.90
13494;DHT22;6819;50.886;4.332;2023-12-28T01:59:41;10.60;99.90
13494;DHT22;6819;50.886;4.332;2023-12-28T02:02:07;10.60;99.90
13494;DHT22;6819;50.886;4.332;2023-12-28T02:04:33;10.60;99.90
13494;DHT22;6819;50.886;4.332;2023-12-28T02:07:00;10.60;99.90
13494;DHT22;6819;50.886;4.332;2023-12-28T02:09:26;10.70;99.90
13494;DHT22;6819;50.886;4.332;2023-12-28T02:11:55;10.70;99.90
13494;DHT22;6819;50.886;4.332;2023-12-28T02:14:21;10.70;99.90
13494;DHT22;6819;50.886;4.332;2023-12-28T02:16:54;10.70;99.90
13494;DHT22;6819;50.886;4.332;2023-12-28T02:19:32;10.70;99.90
13494;DHT22;6819;50.886;4.332;2023-12-28T02:22:00;10.70;99.90
13494;DHT22;6819;50.886;4.332;2023-12-28T02:24:26;10.70;99.90
13494;DHT22;6819;50.886;4.332;2023-12-28T02:26:52;10.80;99.90
13494;DHT22;6819;50.886;4.332;2023-12-28T02:29:18;10.80;99.90
13494;DHT22;6819;50.886;4.332;2023-12-28T02:31:53;10.80;99.90
13494;DHT22;6819;50.886;4.332;2023-12-28T02:34:27;10.80;99.90
13494;DHT22;6819;50.886;4.332;2023-12-28T02:36:54;10.80;99.90
13494;DHT22;6819;50.886;4.332;2023-12-28T02:39:22;10.80;99.90
13494;DHT22;6819;50.886;4.332;2023-12-28T02:41:48;10.90;99.90
13494;DHT22;6819;50.886;4.332;2023-12-28T02:44:14;10.90;99.90
13494;DHT22;6819;50.886;4.332;2023-12-28T02:46:40;10.90;99.90
13494;DHT22;6819;50.886;4.332;2023-12-28T02:49:05;10.90;99.90
13494;DHT22;6819;50.886;4.332;2023-12-28T02:51:31;10.90;99.90
13494;DHT22;6819;50.886;4.332;2023-12-28T02:53:57;10.90;99.90
13494;DHT22;6819;50.886;4.332;2023-12-28T02:56:22;10.90;99.90
13494;DHT22;6819;50.886;4.332;2023-12-28T02:58:48;10.90;99.90
13494;DHT22;6819;50.886;4.332;2023-12-28T03:01:14;10.90;99.90
13494;DHT22;6819;50.886;4.332;2023-12-28T03:03:39;10.90;99.90
13494;DHT22;6819;50.886;4.332;2023-12-28T03:06:05;10.80;99.90
13494;DHT22;6819;50.886;4.332;2023-12-28T03:08:30;10.80;99.90
13494;DHT22;6819;50.886;4.332;2023-12-28T03:10:56;10.90;99.90
13494;DHT22;6819;50.886;4.332;2023-12-28T03:13:22;10.90;99.90
13494;DHT22;6819;50.886;4.332;2023-12-28T03:15:48;10.90;99.90
13494;DHT22;6819;50.886;4.332;2023-12-28T03:18:13;10.90;99.90
13494;DHT22;6819;50.886;4.332;2023-12-28T03:20:39;10.80;99.90
13494;DHT22;6819;50.886;4.332;2023-12-28T03:23:05;10.80;99.90
13494;DHT22;6819;50.886;4.332;2023-12-28T03:25:31;10.90;99.90
13494;DHT22;6819;50.886;4.332;2023-12-28T03:27:56;10.90;99.90
13494;DHT22;6819;50.886;4.332;2023-12-28T03:30:22;10.90;99.90
13494;DHT22;6819;50.886;4.332;2023-12-28T03:32:47;10.90;99.90
13494;DHT22;6819;50.886;4.332;2023-12-28T03:35:13;10.90;99.90
13494;DHT22;6819;50.886;4.332;2023-12-28T03:37:39;10.90;99.90
13494;DHT22;6819;50.886;4.332;2023-12-28T03:40:05;10.90;99.90
13494;DHT22;6819;50.886;4.332;2023-12-28T03:42:31;10.90;99.90
13494;DHT22;6819;50.886;4.332;2023-12-28T03:44:56;10.90;99.90
13494;DHT22;6819;50.886;4.332;2023-12-28T03:47:22;10.90;99.90
13494;DHT22;6819;50.886;4.332;2023-12-28T03:49:49;10.90;99.90
13494;DHT22;6819;50.886;4.332;2023-12-28T03:52:15;10.90;99.90
13494;DHT22;6819;50.886;4.332;2023-12-28T03:54:40;10.90;99.90
13494;DHT22;6819;50.886;4.332;2023-12-28T03:57:06;10.90;99.90
13494;DHT22;6819;50.886;4.332;2023-12-28T03:59:32;10.90;99.90
13494;DHT22;6819;50.886;4.332;2023-12-28T04:01:57;10.90;99.90
13494;DHT22;6819;50.886;4.332;2023-12-28T04:04:23;10.90;99.90
13494;DHT22;6819;50.886;4.332;2023-12-28T04:06:48;10.90;99.90
13494;DHT22;6819;50.886;4.332;2023-12-28T04:09:14;10.90;99.90
13494;DHT22;6819;50.886;4.332;2023-12-28T04:11:40;10.90;99.90
13494;DHT22;6819;50.886;4.332;2023-12-28T04:14:06;10.90;99.90
13494;DHT22;6819;50.886;4.332;2023-12-28T04:16:31;10.90;99.90
13494;DHT22;6819;50.886;4.332;2023-12-28T04:18:57;11.00;99.90
13494;DHT22;6819;50.886;4.332;2023-12-28T04:21:22;10.90;99.90
13494;DHT22;6819;50.886;4.332;2023-12-28T04:23:48;10.90;99.90
13494;DHT22;6819;50.886;4.332;2023-12-28T04:26:14;10.90;99.90
13494;DHT22;6819;50.886;4.332;2023-12-28T04:28:39;11.00;99.90
13494;DHT22;6819;50.886;4.332;2023-12-28T04:31:06;11.00;99.90
13494;DHT22;6819;50.886;4.332;2023-12-28T04:33:32;11.00;99.90
13494;DHT22;6819;50.886;4.332;2023-12-28T04:36:01;11.00;99.90
13494;DHT22;6819;50.886;4.332;2023-12-28T04:38:29;11.00;99.90
13494;DHT22;6819;50.886;4.332;2023-12-28T04:40:54;11.00;99.90
13494;DHT22;6819;50.886;4.332;2023-12-28T04:43:20;10.90;99.90
13494;DHT22;6819;50.886;4.332;2023-12-28T04:45:46;10.90;99.90
13494;DHT22;6819;50.886;4.332;2023-12-28T04:48:11;10.90;99.90
13494;DHT22;6819;50.886;4.332;2023-12-28T04:50:37;10.90;99.90
13494;DHT22;6819;50.886;4.332;2023-12-28T04:53:03;10.90;99.90
13494;DHT22;6819;50.886;4.332;2023-12-28T04:55:28;10.90;99.90
13494;DHT22;6819;50.886;4.332;2023-12-28T04:57:54;10.90;99.90
13494;DHT22;6819;50.886;4.332;2023-12-28T05:00:20;10.80;99.90
13494;DHT22;6819;50.886;4.332;2023-12-28T05:02:45;10.80;99.90
13494;DHT22;6819;50.886;4.332;2023-12-28T05:05:14;10.80;99.90
13494;DHT22;6819;50.886;4.332;2023-12-28T05:07:40;10.80;99.90
13494;DHT22;6819;50.886;4.332;2023-12-28T05:10:06;10.70;99.90
13494;DHT22;6819;50.886;4.332;2023-12-28T05:12:31;10.80;99.90
13494;DHT22;6819;50.886;4.332;2023-12-28T05:14:57;10.70;99.90
13494;DHT22;6819;50.886;4.332;2023-12-28T05:17:23;10.70;99.90
13494;DHT22;6819;50.886;4.332;2023-12-28T05:19:48;10.60;99.90
13494;DHT22;6819;50.886;4.332;2023-12-28T05:22:14;10.60;99.90
13494;DHT22;6819;50.886;4.332;2023-12-28T05:24:40;10.60;99.90
13494;DHT22;6819;50.886;4.332;2023-12-28T05:27:05;10.70;99.90
13494;DHT22;6819;50.886;4.332;2023-12-28T05:29:31;10.60;99.90
13494;DHT22;6819;50.886;4.332;2023-12-28T05:31:56;10.70;99.90
13494;DHT22;6819;50.886;4.332;2023-12-28T05:34:22;10.70;99.90
13494;DHT22;6819;50.886;4.332;2023-12-28T05:36:48;10.70;99.90
13494;DHT22;6819;50.886;4.332;2023-12-28T05:39:13;10.70;99.90
13494;DHT22;6819;50.886;4.332;2023-12-28T05:41:39;10.70;99.90
13494;DHT22;6819;50.886;4.332;2023-12-28T05:44:06;10.80;99.90
13494;DHT22;6819;50.886;4.332;2023-12-28T05:46:32;10.70;99.90
13494;DHT22;6819;50.886;4.332;2023-12-28T05:48:58;10.70;99.90
13494;DHT22;6819;50.886;4.332;2023-12-28T05:51:23;10.70;99.90
13494;DHT22;6819;50.886;4.332;2023-12-28T05:53:49;10.70;99.90
13494;DHT22;6819;50.886;4.332;2023-12-28T05:56:14;10.70;99.90
13494;DHT22;6819;50.886;4.332;2023-12-28T05:58:40;10.70;99.90
13494;DHT22;6819;50.886;4.332;2023-12-28T06:01:07;10.70;99.90
13494;DHT22;6819;50.886;4.332;2023-12-28T06:03:32;10.60;99.90
13494;DHT22;6819;50.886;4.332;2023-12-28T06:05:58;10.60;99.90
13494;DHT22;6819;50.886;4.332;2023-12-28T06:08:24;10.60;99.90
13494;DHT22;6819;50.886;4.332;2023-12-28T06:10:49;10.70;99.90
13494;DHT22;6819;50.886;4.332;2023-12-28T06:13:15;10.70;99.90
13494;DHT22;6819;50.886;4.332;2023-12-28T06:15:41;10.70;99.90
13494;DHT22;6819;50.886;4.332;2023-12-28T06:18:06;10.70;99.90
13494;DHT22;6819;50.886;4.332;2023-12-28T06:20:32;10.70;99.90
13494;DHT22;6819;50.886;4.332;2023-12-28T06:22:58;10.60;99.90
13494;DHT22;6819;50.886;4.332;2023-12-28T06:25:24;10.60;99.90
13494;DHT22;6819;50.886;4.332;2023-12-28T06:27:49;10.60;99.90
13494;DHT22;6819;50.886;4.332;2023-12-28T06:30:15;10.60;99.90
13494;DHT22;6819;50.886;4.332;2023-12-28T06:32:41;10.60;99.90
13494;DHT22;6819;50.886;4.332;2023-12-28T06:35:07;10.50;99.90
13494;DHT22;6819;50.886;4.332;2023-12-28T06:37:33;10.50;99.90
13494;DHT22;6819;50.886;4.332;2023-12-28T06:39:58;10.50;99.90
13494;DHT22;6819;50.886;4.332;2023-12-28T06:42:24;10.50;99.90
13494;DHT22;6819;50.886;4.332;2023-12-28T06:44:50;10.50;99.90
13494;DHT22;6819;50.886;4.332;2023-12-28T06:47:15;10.50;99.90
13494;DHT22;6819;50.886;4.332;2023-12-28T06:49:41;10.50;99.90
13494;DHT22;6819;50.886;4.332;2023-12-28T06:52:06;10.50;99.90
13494;DHT22;6819;50.886;4.332;2023-12-28T06:54:32;10.40;99.90
13494;DHT22;6819;50.886;4.332;2023-12-28T06:56:58;10.40;99.90
13494;DHT22;6819;50.886;4.332;2023-12-28T06:59:23;10.40;99.90
13494;DHT22;6819;50.886;4.332;2023-12-28T07:01:49;10.30;99.90
13494;DHT22;6819;50.886;4.332;2023-12-28T07:04:15;10.30;99.90
13494;DHT22;6819;50.886;4.332;2023-12-28T07:06:41;10.30;99.90
13494;DHT22;6819;50.886;4.332;2023-12-28T07:09:06;10.30;99.90
13494;DHT22;6819;50.886;4.332;2023-12-28T07:11:32;10.30;99.90
13494;DHT22;6819;50.886;4.332;2023-12-28T07:13:58;10.20;99.90
13494;DHT22;6819;50.886;4.332;2023-12-28T07:16:24;10.30;99.90
13494;DHT22;6819;50.886;4.332;2023-12-28T07:18:49;10.20;99.90
13494;DHT22;6819;50.886;4.332;2023-12-28T07:21:15;10.30;99.90
13494;DHT22;6819;50.886;4.332;2023-12-28T07:23:41;10.20;99.90
13494;DHT22;6819;50.886;4.332;2023-12-28T07:26:06;10.20;99.90
13494;DHT22;6819;50.886;4.332;2023-12-28T07:28:32;10.20;99.90
13494;DHT22;6819;50.886;4.332;2023-12-28T07:30:57;10.20;99.90
13494;DHT22;6819;50.886;4.332;2023-12-28T07:33:23;10.20;99.90
13494;DHT22;6819;50.886;4.332;2023-12-28T07:35:49;10.20;99.90
13494;DHT22;6819;50.886;4.332;2023-12-28T07:38:14;10.20;99.90
13494;DHT22;6819;50.886;4.332;2023-12-28T07:40:40;10.20;99.90
13494;DHT22;6819;50.886;4.332;2023-12-28T07:43:06;10.20;99.90
13494;DHT22;6819;50.886;4.332;2023-12-28T07:45:32;10.30;99.90
13494;DHT22;6819;50.886;4.332;2023-12-28T07:48:01;10.30;99.90
13494;DHT22;6819;50.886;4.332;2023-12-28T07:50:27;10.30;99.90
13494;DHT22;6819;50.886;4.332;2023-12-28T07:52:52;10.40;99.90
13494;DHT22;6819;50.886;4.332;2023-12-28T07:55:18;10.30;99.90
13494;DHT22;6819;50.886;4.332;2023-12-28T07:57:44;10.30;99.90
13494;DHT22;6819;50.886;4.332;2023-12-28T08:00:11;10.30;99.90
13494;DHT22;6819;50.886;4.332;2023-12-28T08:02:36;10.30;99.90
13494;DHT22;6819;50.886;4.332;2023-12-28T08:05:03;10.30;99.90
13494;DHT22;6819;50.886;4.332;2023-12-28T08:07:28;10.30;99.90
13494;DHT22;6819;50.886;4.332;2023-12-28T08:09:54;10.30;99.90
13494;DHT22;6819;50.886;4.332;2023-12-28T08:12:20;10.30;99.90
13494;DHT22;6819;50.886;4.332;2023-12-28T08:14:46;10.30;99.90
13494;DHT22;6819;50.886;4.332;2023-12-28T08:17:12;10.40;99.90
13494;DHT22;6819;50.886;4.332;2023-12-28T08:19:38;10.40;99.90
13494;DHT22;6819;50.886;4.332;2023-12-28T08:22:04;10.30;99.90
13494;DHT22;6819;50.886;4.332;2023-12-28T08:24:30;10.30;99.90
13494;DHT22;6819;50.886;4.332;2023-12-28T08:26:55;10.30;99.90
13494;DHT22;6819;50.886;4.332;2023-12-28T08:29:25;10.40;99.90
13494;DHT22;6819;50.886;4.332;2023-12-28T08:31:50;10.40;99.90
13494;DHT22;6819;50.886;4.332;2023-12-28T08:34:16;10.40;99.90
13494;DHT22;6819;50.886;4.332;2023-12-28T08:36:42;10.40;99.90
13494;DHT22;6819;50.886;4.332;2023-12-28T08:39:07;10.50;99.90
13494;DHT22;6819;50.886;4.332;2023-12-28T08:41:33;10.50;99.90
13494;DHT22;6819;50.886;4.332;2023-12-28T08:43:59;10.50;99.90
13494;DHT22;6819;50.886;4.332;2023-12-28T08:46:25;10.50;99.90
13494;DHT22;6819;50.886;4.332;2023-12-28T08:48:51;10.50;99.90
13494;DHT22;6819;50.886;4.332;2023-12-28T08:51:16;10.60;99.90
13494;DHT22;6819;50.886;4.332;2023-12-28T08:53:42;10.60;99.90
13494;DHT22;6819;50.886;4.332;2023-12-28T08:56:18;10.60;99.90
13494;DHT22;6819;50.886;4.332;2023-12-28T08:58:45;10.60;99.90
13494;DHT22;6819;50.886;4.332;2023-12-28T09:01:19;10.60;99.90
13494;DHT22;6819;50.886;4.332;2023-12-28T09:03:46;10.60;99.90
13494;DHT22;6819;50.886;4.332;2023-12-28T09:06:12;10.70;99.90
13494;DHT22;6819;50.886;4.332;2023-12-28T09:08:40;10.70;99.90
13494;DHT22;6819;50.886;4.332;2023-12-28T09:11:06;10.60;99.90
13494;DHT22;6819;50.886;4.332;2023-12-28T09:13:31;10.70;99.90
13494;DHT22;6819;50.886;4.332;2023-12-28T09:15:57;10.60;99.90
13494;DHT22;6819;50.886;4.332;2023-12-28T09:18:23;10.60;99.90
13494;DHT22;6819;50.886;4.332;2023-12-28T09:20:48;10.60;99.90
13494;DHT22;6819;50.886;4.332;2023-12-28T09:23:15;10.60;99.90
13494;DHT22;6819;50.886;4.332;2023-12-28T09:25:41;10.60;99.90
13494;DHT22;6819;50.886;4.332;2023-12-28T09:28:06;10.60;99.90
13494;DHT22;6819;50.886;4.332;2023-12-28T09:30:32;10.60;99.90
13494;DHT22;6819;50.886;4.332;2023-12-28T09:32:58;10.60;99.90
13494;DHT22;6819;50.886;4.332;2023-12-28T09:35:24;10.60;99.90
13494;DHT22;6819;50.886;4.332;2023-12-28T09:37:50;10.70;99.90
13494;DHT22;6819;50.886;4.332;2023-12-28T09:40:16;10.70;99.90
13494;DHT22;6819;50.886;4.332;2023-12-28T09:43:10;10.70;99.90
13494;DHT22;6819;50.886;4.332;2023-12-28T09:45:38;10.80;99.90
13494;DHT22;6819;50.886;4.332;2023-12-28T09:48:04;10.80;99.90
13494;DHT22;6819;50.886;4.332;2023-12-28T09:50:32;10.80;99.90
13494;DHT22;6819;50.886;4.332;2023-12-28T09:52:58;10.80;99.90
13494;DHT22;6819;50.886;4.332;2023-12-28T09:55:24;10.90;99.90
13494;DHT22;6819;50.886;4.332;2023-12-28T09:57:51;10.90;99.90
